Map

Track Data

SID SEASON NUMBER BASIN SUBBASIN NAME ISO_TIME NATURE LAT LON WMO_WIND WMO_PRES WMO_AGENCY TRACK_TYPE DIST2LAND LANDFALL IFLAG USA_AGENCY USA_ATCF_ID USA_LAT USA_LON USA_RECORD USA_STATUS USA_WIND USA_PRES USA_SSHS USA_R34_NE USA_R34_SE USA_R34_SW USA_R34_NW USA_R50_NE USA_R50_SE USA_R50_SW USA_R50_NW USA_R64_NE USA_R64_SE USA_R64_SW USA_R64_NW USA_POCI USA_ROCI USA_RMW USA_EYE TOKYO_LAT TOKYO_LON TOKYO_GRADE TOKYO_WIND TOKYO_PRES TOKYO_R50_DIR TOKYO_R50_LONG TOKYO_R50_SHORT TOKYO_R30_DIR TOKYO_R30_LONG TOKYO_R30_SHORT TOKYO_LAND CMA_LAT CMA_LON CMA_CAT CMA_WIND CMA_PRES HKO_LAT HKO_LON HKO_CAT HKO_WIND HKO_PRES NEWDELHI_LAT NEWDELHI_LON NEWDELHI_GRADE NEWDELHI_WIND NEWDELHI_PRES NEWDELHI_CI NEWDELHI_DP NEWDELHI_POCI REUNION_LAT REUNION_LON REUNION_TYPE REUNION_WIND REUNION_PRES REUNION_TNUM REUNION_CI REUNION_RMW REUNION_R34_NE REUNION_R34_SE REUNION_R34_SW REUNION_R34_NW REUNION_R50_NE REUNION_R50_SE REUNION_R50_SW REUNION_R50_NW REUNION_R64_NE REUNION_R64_SE REUNION_R64_SW REUNION_R64_NW BOM_LAT BOM_LON BOM_TYPE BOM_WIND BOM_PRES BOM_TNUM BOM_CI BOM_RMW BOM_R34_NE BOM_R34_SE BOM_R34_SW BOM_R34_NW BOM_R50_NE BOM_R50_SE BOM_R50_SW BOM_R50_NW BOM_R64_NE BOM_R64_SE BOM_R64_SW BOM_R64_NW BOM_ROCI BOM_POCI BOM_EYE BOM_POS_METHOD BOM_PRES_METHOD NADI_LAT NADI_LON NADI_CAT NADI_WIND NADI_PRES WELLINGTON_LAT WELLINGTON_LON WELLINGTON_WIND WELLINGTON_PRES DS824_LAT DS824_LON DS824_STAGE DS824_WIND DS824_PRES TD9636_LAT TD9636_LON TD9636_STAGE TD9636_WIND TD9636_PRES TD9635_LAT TD9635_LON TD9635_WIND TD9635_PRES TD9635_ROCI NEUMANN_LAT NEUMANN_LON NEUMANN_CLASS NEUMANN_WIND NEUMANN_PRES MLC_LAT MLC_LON MLC_CLASS MLC_WIND MLC_PRES USA_GUST BOM_GUST BOM_GUST_PER REUNION_GUST REUNION_GUST_PER USA_SEAHGT USA_SEARAD_NE USA_SEARAD_SE USA_SEARAD_SW USA_SEARAD_NW STORM_SPEED STORM_DIR
1951321S06073 1952 87 SI MM NOT_NAMED 1951-11-17 06:00:00 TS -5.70000 73.2000 main 1530 1530 O________OO___ jtwc_sh SH011952 -5.70000 73.2000 -1 -5.70000 73.2000 TC 25 -5.70000 73.2000 7 4 270
1951321S06073 1952 87 SI MM NOT_NAMED 1951-11-17 09:00:00 TS -5.70003 72.9996 main 1541 1541 P________PP___ SH011952 -5.68752 72.9900 -1 -5.68752 72.9900 TC 25 -5.72505 73.0188 7 4 268
1951321S06073 1952 87 SI MM NOT_NAMED 1951-11-17 12:00:00 TS -5.71668 72.8133 main 1553 1553 O________OP___ jtwc_sh SH011952 -5.70000 72.8000 -1 -5.70000 72.8000 TC 25 -5.75005 72.8400 7 4 260
1951321S06073 1952 87 SI MM NOT_NAMED 1951-11-17 15:00:00 TS -5.75834 72.6504 main 1568 1568 P________PP___ SH011952 -5.74999 72.6425 -1 -5.74999 72.6425 TC 30 -5.77503 72.6663 7 3 255
1951321S06073 1952 87 SI MM NOT_NAMED 1951-11-17 18:00:00 TS -5.80000 72.5000 main 1581 1581 O________OO___ jtwc_sh SH011952 -5.80000 72.5000 -1 -5.80000 72.5000 TC 35 -5.80000 72.5000 2 3 261
1951321S06073 1952 87 SI MM NOT_NAMED 1951-11-17 21:00:00 TS -5.80832 72.3476 main 1593 1593 P________PP___ SH011952 -5.80000 72.3500 -1 -5.80000 72.3500 TC 35 -5.82498 72.3428 2 3 267
1951321S06073 1952 87 SI MM NOT_NAMED 1951-11-18 00:00:00 TS -5.81666 72.1975 main 1599 1599 O________OP___ jtwc_sh SH011952 -5.80000 72.2000 -1 -5.80000 72.2000 TC 35 -5.84997 72.1925 2 3 261
1951321S06073 1952 87 SI MM NOT_NAMED 1951-11-18 03:00:00 TS -5.85832 72.0487 main 1621 1621 P________PP___ SH011952 -5.85000 72.0500 -1 -5.85000 72.0500 TC 35 -5.87498 72.0459 2 3 254
1951321S06073 1952 87 SI MM NOT_NAMED 1951-11-18 06:00:00 TS -5.90000 71.9000 main 1627 1627 O________OO___ jtwc_sh SH011952 -5.90000 71.9000 -1 -5.90000 71.9000 TC 35 -5.90000 71.9000 2 3 261
1951321S06073 1952 87 SI MM NOT_NAMED 1951-11-18 09:00:00 TS -5.90696 71.7554 main 1634 1634 P________PP___ SH011952 -5.90000 71.7500 -1 -5.90000 71.7500 TC 35 -5.92089 71.7662 2 3 267
1951321S06073 1952 87 SI MM NOT_NAMED 1951-11-18 12:00:00 TS -5.91414 71.6100 main 1647 1647 O________OP___ jtwc_sh SH011952 -5.90000 71.6000 -1 -5.90000 71.6000 TC 35 -5.94242 71.6300 2 3 261
1951321S06073 1952 87 SI MM NOT_NAMED 1951-11-18 15:00:00 TS -5.95091 71.4646 main 1662 1662 P________PP___ SH011952 -5.94249 71.4575 -1 -5.94249 71.4575 TC 35 -5.96775 71.4787 2 3 255
1951321S06073 1952 87 SI MM NOT_NAMED 1951-11-18 18:00:00 TS -6.00000 71.3000 main 1675 1675 O________OO___ jtwc_sh SH011952 -6.00000 71.3000 -1 -6.00000 71.3000 TC 35 -6.00000 71.3000 2 4 254
1951321S06073 1952 87 SI MM NOT_NAMED 1951-11-18 21:00:00 TS -6.04894 71.1120 main 1689 1689 P________PP___ SH011952 -6.04998 71.1225 -1 -6.04998 71.1225 TC 35 -6.04685 71.0910 2 4 256
1951321S06073 1952 87 SI MM NOT_NAMED 1951-11-19 00:00:00 TS -6.09999 70.8842 main 1711 1711 O________OP___ jtwc_sh SH011952 -6.10000 70.9000 -1 -6.10000 70.9000 TC 35 -6.09996 70.8525 2 5 258
1951321S06073 1952 87 SI MM NOT_NAMED 1951-11-19 03:00:00 TS -6.15603 70.6059 main 1740 1740 P________PP___ SH011952 -6.15751 70.6150 -1 -6.15751 70.6150 TC 35 -6.15308 70.5878 2 6 260
1951321S06073 1952 87 SI MM NOT_NAMED 1951-11-19 06:00:00 TS -6.20000 70.3000 main 1761 1761 O________OO___ jtwc_sh SH011952 -6.20000 70.3000 -1 -6.20000 70.3000 TC 35 -6.20000 70.3000 2 6 265
1951321S06073 1952 87 SI MM NOT_NAMED 1951-11-19 09:00:00 TS -6.21073 69.9998 main 1782 1782 P________PP___ SH011952 -6.19997 70.0075 -1 -6.19997 70.0075 TC 35 -6.23224 69.9844 2 6 268
1951321S06073 1952 87 SI MM NOT_NAMED 1951-11-19 12:00:00 TS -6.21919 69.6833 main 1804 1804 O________OP___ jtwc_sh SH011952 -6.20000 69.7000 -1 -6.20000 69.7000 TC 35 -6.25757 69.6500 2 7 266
1951321S06073 1952 87 SI MM NOT_NAMED 1951-11-19 15:00:00 TS -6.25972 69.3335 main 1841 1841 P________PP___ SH011952 -6.25002 69.3425 -1 -6.25002 69.3425 TC 35 -6.27911 69.3156 2 7 263
1951321S06073 1952 87 SI MM NOT_NAMED 1951-11-19 18:00:00 TS -6.30000 69.0000 main 1858 1858 O________OO___ jtwc_sh SH011952 -6.30000 69.0000 -1 -6.30000 69.0000 TC 35 -6.30000 69.0000 2 6 265
1951321S06073 1952 87 SI MM NOT_NAMED 1951-11-19 21:00:00 TS -6.30690 68.7382 main 1874 1874 P________PP___ SH011952 -6.29996 68.7350 -1 -6.29996 68.7350 TC 35 -6.32078 68.7447 2 5 268
1951321S06073 1952 87 SI MM NOT_NAMED 1951-11-20 00:00:00 TS -6.31410 68.5025 main 1886 1886 O________OP___ jtwc_sh SH011952 -6.30000 68.5000 -1 -6.30000 68.5000 TC 35 -6.34228 68.5074 2 5 265
1951321S06073 1952 87 SI MM NOT_NAMED 1951-11-20 03:00:00 TS -6.35086 68.2655 main 1907 1894 P________PP___ SH011952 -6.34246 68.2650 -1 -6.34246 68.2650 TC 35 -6.36765 68.2665 2 5 260
1951321S06073 1952 87 SI MM NOT_NAMED 1951-11-20 06:00:00 TS -6.40000 68.0000 main 1894 1875 O________OO___ jtwc_sh SH011952 -6.40000 68.0000 -1 -6.40000 68.0000 TC 35 -6.40000 68.0000 2 6 261
1951321S06073 1952 87 SI MM NOT_NAMED 1951-11-20 09:00:00 TS -6.44896 67.6710 main 1875 1841 P________PP___ SH011952 -6.45000 67.6650 -1 -6.45000 67.6650 TC 35 -6.44687 67.6828 2 7 262
1951321S06073 1952 87 SI MM NOT_NAMED 1951-11-20 12:00:00 TS -6.49999 67.3125 main 1841 1814 O________OP___ jtwc_sh SH011952 -6.50000 67.3000 -1 -6.50000 67.3000 TC 35 -6.49998 67.3375 2 7 261
1951321S06073 1952 87 SI MM NOT_NAMED 1951-11-20 15:00:00 TS -6.55602 66.9578 main 1814 1790 P________PP___ SH011952 -6.55748 66.9500 -1 -6.55748 66.9500 TC 35 -6.55310 66.9734 2 7 262
1951321S06073 1952 87 SI MM NOT_NAMED 1951-11-20 18:00:00 TS -6.60000 66.6000 main 1790 1773 O________OO___ jtwc_sh SH011952 -6.60000 66.6000 -1 -6.60000 66.6000 TC 35 -6.60000 66.6000 2 7 266
1951321S06073 1952 87 SI MM NOT_NAMED 1951-11-20 21:00:00 TS -6.61063 66.2571 main 1773 1751 P________PP___ SH011952 -6.59996 66.2575 -1 -6.59996 66.2575 TC 35 -6.63199 66.2565 2 7 268
1951321S06073 1952 87 SI MM NOT_NAMED 1951-11-21 00:00:00 TS -6.61906 65.9008 main 1751 1720 O________OP___ jtwc_sh SH011952 -6.60000 65.9000 -1 -6.60000 65.9000 TC 35 -6.65719 65.9024 2 7 266
1951321S06073 1952 87 SI MM NOT_NAMED 1951-11-21 03:00:00 TS -6.65957 65.5224 main 1720 1699 P________PP___ SH011952 -6.64995 65.5225 -1 -6.64995 65.5225 TC 35 -6.67881 65.5221 2 8 264
1951321S06073 1952 87 SI MM NOT_NAMED 1951-11-21 06:00:00 TS -6.70000 65.1000 main 1699 1674 O________OO___ jtwc_sh SH011952 -6.70000 65.1000 -1 -6.70000 65.1000 TC 35 -6.70000 65.1000 2 9 267
1951321S06073 1952 87 SI MM NOT_NAMED 1951-11-21 09:00:00 TS -6.70833 64.6196 main 1674 1651 P________PP___ SH011952 -6.69997 64.6224 -1 -6.69997 64.6224 TC 35 -6.72506 64.6140 2 10 269
1951321S06073 1952 87 SI MM NOT_NAMED 1951-11-21 12:00:00 TS -6.71669 64.0958 main 1651 1619 O________OP___ jtwc_sh SH011952 -6.70000 64.1000 -1 -6.70000 64.1000 TC 35 -6.75008 64.0874 2 11 267
1951321S06073 1952 87 SI MM NOT_NAMED 1951-11-21 15:00:00 TS -6.75834 63.5474 main 1615 1594 P________PP___ SH011952 -6.74999 63.5500 -1 -6.74999 63.5500 TC 35 -6.77504 63.5421 2 11 266
1951321S06073 1952 87 SI MM NOT_NAMED 1951-11-21 18:00:00 TS -6.80000 63.0000 main 1594 1545 O________OO___ jtwc_sh SH011952 -6.80000 63.0000 -1 -6.80000 63.0000 TC 35 -6.80000 63.0000 2 11 267
1951321S06073 1952 87 SI MM NOT_NAMED 1951-11-21 21:00:00 TS -6.80829 62.4818 main 1545 1496 P________PP___ SH011952 -6.79993 62.4925 -1 -6.79993 62.4925 TC 35 -6.82501 62.4604 2 10 269
1951321S06073 1952 87 SI MM NOT_NAMED 1951-11-22 00:00:00 TS -6.81669 61.9775 main 1496 1442 O________OP___ jtwc_sh SH011952 -6.80000 62.0000 -1 -6.80000 62.0000 TC 35 -6.85006 61.9326 2 10 267
1951321S06073 1952 87 SI MM NOT_NAMED 1951-11-22 03:00:00 TS -6.85837 61.4595 main 1442 1394 P________PP___ SH011952 -6.85003 61.4700 -1 -6.85003 61.4700 TC 35 -6.87506 61.4385 2 10 265
1951321S06073 1952 87 SI MM NOT_NAMED 1951-11-22 06:00:00 TS -6.90000 61.0000 main 1394 1366 O________OO___ jtwc_sh SH011952 -6.90000 61.0000 -1 -6.90000 61.0000 TC 35 -6.90000 61.0000 2 8 266
1951321S06073 1952 87 SI MM NOT_NAMED 1951-11-22 09:00:00 TS -6.90681 60.6635 main 1366 1337 P________PP___ SH011952 -6.89991 60.6700 -1 -6.89991 60.6700 TC 35 -6.92061 60.6506 2 6 269
1951321S06073 1952 87 SI MM NOT_NAMED 1951-11-22 12:00:00 TS -6.91403 60.3850 main 1337 1309 O________OP___ jtwc_sh SH011952 -6.90000 60.4000 -1 -6.90000 60.4000 TC 35 -6.94209 60.3550 2 6 266
1951321S06073 1952 87 SI MM NOT_NAMED 1951-11-22 15:00:00 TS -6.95082 60.0990 main 1303 1275 P________PP___ SH011952 -6.94247 60.1075 -1 -6.94247 60.1075 TC 35 -6.96754 60.0818 2 6 262
1951321S06073 1952 87 SI MM NOT_NAMED 1951-11-22 18:00:00 TS -7.00000 59.8000 main 1275 1247 O________OO___ jtwc_sh SH011952 -7.00000 59.8000 -1 -7.00000 59.8000 TC 35 -7.00000 59.8000 2 6 261
1951321S06073 1952 87 SI MM NOT_NAMED 1951-11-22 21:00:00 TS -7.04893 59.4625 main 1247 1204 P________PP___ SH011952 -7.04999 59.4575 -1 -7.04999 59.4575 TC 35 -7.04680 59.4725 2 7 262
1951321S06073 1952 87 SI MM NOT_NAMED 1951-11-23 00:00:00 TS -7.09996 59.1100 main 1204 1171 O________OP___ jtwc_sh SH011952 -7.10000 59.1000 -1 -7.10000 59.1000 TC 35 -7.09989 59.1300 2 7 261
1951321S06073 1952 87 SI MM NOT_NAMED 1951-11-23 03:00:00 TS -7.15598 58.7625 main 1171 1144 P________PP___ SH011952 -7.15746 58.7575 -1 -7.15746 58.7575 TC 35 -7.15303 58.7725 2 6 257
1951321S06073 1952 87 SI MM NOT_NAMED 1951-11-23 06:00:00 TS -7.23846 58.4846 reunion main 1144 1110 O____O___OO___ jtwc_sh SH011952 -7.20000 58.4000 -1 -7.70000 59.5000 99 9.90000 -7.20000 58.4000 TC 35 -7.20000 58.4000 2 6 258
1951321S06073 1952 87 SI MM NOT_NAMED 1951-11-23 09:00:00 TS -7.28225 58.1718 main 1110 1081 P____P___PP___ SH011952 -7.19998 58.0075 -1 -7.72783 59.1364 99 -7.19998 58.0075 TC 35 -7.22399 58.0183 2 6 263
1951321S06073 1952 87 SI MM NOT_NAMED 1951-11-23 12:00:00 TS -7.32234 57.8398 main 1072 1038 O____P___OP___ jtwc_sh SH011952 -7.20000 57.6000 -1 -7.75520 58.7693 99 -7.20000 57.6000 TC 35 -7.24240 57.6223 2 7 261
1951321S06073 1952 87 SI MM NOT_NAMED 1951-11-23 15:00:00 TS -7.38287 57.5026 main 1038 1000 P____P___PP___ SH011952 -7.24247 57.2000 -1 -7.78196 58.3952 99 -7.24247 57.2000 TC 35 -7.26460 57.2152 2 7 262
1951321S06073 1952 87 SI MM NOT_NAMED 1951-11-23 18:00:00 TS -7.42698 57.1027 main 1000 957 O____P___OO___ jtwc_sh SH011952 -7.30000 56.8000 -1 -7.80793 58.0108 99 -7.30000 56.8000 TC 35 -7.30000 56.8000 2 8 264
1951321S06073 1952 87 SI MM NOT_NAMED 1951-11-23 21:00:00 TS -7.46854 56.7065 main 957 921 P____P___PP___ SH011952 -7.34244 56.4075 -1 -7.83292 57.6125 99 -7.34244 56.4075 TC 35 -7.35636 56.3984 2 8 263
1951321S06073 1952 87 SI MM NOT_NAMED 1951-11-24 00:00:00 TS -7.52099 56.2961 main 921 879 O____P___OP___ jtwc_sh SH011952 -7.40000 56.0000 -1 -7.85675 57.1970 99 -7.40000 56.0000 TC 35 -7.42720 55.9874 2 8 262
1951321S06073 1952 87 SI MM NOT_NAMED 1951-11-24 03:00:00 TS -7.59338 55.8621 main 879 828 P____P___PP___ SH011952 -7.49245 55.5650 -1 -7.87918 56.7606 99 -7.49245 55.5650 TC 35 -7.50944 55.5577 2 9 260
1951321S06073 1952 87 SI MM NOT_NAMED 1951-11-24 06:00:00 TS -7.67500 55.4000 reunion main 828 785 O____O___OO___ jtwc_sh SH011952 -7.60000 55.1000 -1 -7.90000 56.3000 99 9.90000 -7.60000 55.1000 TC 35 -7.60000 55.1000 2 10 260
1951321S06073 1952 87 SI MM NOT_NAMED 1951-11-24 09:00:00 TS -7.75411 54.9076 main 778 736 P____P___PP___ SH011952 -7.69994 54.6150 -1 -7.91958 55.8128 99 -7.69994 54.6150 TC 35 -7.69698 54.5876 2 10 261
1951321S06073 1952 87 SI MM NOT_NAMED 1951-11-24 12:00:00 TS -7.83524 54.3878 main 736 689 O____P___OP___ jtwc_sh SH011952 -7.80000 54.1000 -1 -7.94079 55.3011 99 -7.80000 54.1000 TC 35 -7.80016 54.0501 2 11 261
1951321S06073 1952 87 SI MM NOT_NAMED 1951-11-24 15:00:00 TS -7.91761 53.8377 main 681 634 P____P___PP___ SH011952 -7.90004 53.5350 -1 -7.96714 54.7684 99 -7.90004 53.5350 TC 35 -7.90323 53.5125 2 11 261
1951321S06073 1952 87 SI MM NOT_NAMED 1951-11-24 18:00:00 TS -8.00054 53.3044 main 634 596 O____P___OO___ jtwc_sh SH011952 -8.00000 53.0000 -1 -8.00217 54.2177 99 -8.00000 53.0000 TC 35 -8.00000 53.0000 2 10 261
1951321S06073 1952 87 SI MM NOT_NAMED 1951-11-24 21:00:00 TS -8.08036 52.8481 main 589 553 P____P___PP___ SH011952 -8.10736 52.5850 -1 -8.04940 53.6524 99 -8.10736 52.5850 TC 35 -8.05733 52.5702 2 9 260
1951321S06073 1952 87 SI MM NOT_NAMED 1951-11-25 00:00:00 TS -8.15605 52.4100 main 553 527 O____P___OP___ jtwc_sh SH011952 -8.20000 52.2000 -1 -8.11240 53.0756 99 -8.20000 52.2000 TC 35 -8.11181 52.1644 2 9 261
1951321S06073 1952 87 SI MM NOT_NAMED 1951-11-25 03:00:00 TS -8.21625 51.9467 main 521 489 P____P___PP___ SH011952 -8.24242 51.7724 -1 -8.19473 52.4904 99 -8.24242 51.7724 TC 35 -8.18542 51.7514 2 10 261
1951321S06073 1952 87 SI MM NOT_NAMED 1951-11-25 06:00:00 TS -8.30000 51.4500 reunion main 489 449 O____O___OO___ jtwc_sh SH011952 -8.30000 51.3000 -1 -8.30000 51.9000 99 9.90000 -8.30000 51.3000 TC 35 -8.30000 51.3000 2 11 259
1951321S06073 1952 87 SI MM NOT_NAMED 1951-11-25 09:00:00 TS -8.42069 50.8957 main 449 407 P____P___PP___ SH011952 -8.41245 50.7724 -1 -8.40426 51.2823 99 -8.41245 50.7724 TC 35 -8.45361 50.7558 2 12 255
1951321S06073 1952 87 SI MM NOT_NAMED 1951-11-25 12:00:00 TS -8.59515 50.3060 main 407 372 O____P___OP___ jtwc_sh SH011952 -8.60000 50.2000 -1 -8.52783 50.6516 99 -8.60000 50.2000 TC 35 -8.65275 50.1722 2 13 251
1951321S06073 1952 87 SI MM NOT_NAMED 1951-11-25 15:00:00 TS -8.82458 49.6986 main 372 336 P____P___PP___ SH011952 -8.86248 49.6000 -1 -8.67288 50.0168 99 -8.86248 49.6000 TC 35 -8.90047 49.5775 2 13 247
1951321S06073 1952 87 SI MM NOT_NAMED 1951-11-25 18:00:00 TS -9.11041 49.0968 main 336 309 O____P___OO___ jtwc_sh SH011952 -9.20000 49.0000 -1 -8.84163 49.3871 99 -9.20000 49.0000 TC 35 -9.20000 49.0000 2 13 242
1951321S06073 1952 87 SI MM NOT_NAMED 1951-11-25 21:00:00 TS -9.44504 48.5202 main 311 284 P____P___PP___ SH011952 -9.58494 48.4275 -1 -9.03636 48.7715 99 -9.58494 48.4275 TC 30 -9.57390 48.4545 2 13 238
1951321S06073 1952 87 SI MM NOT_NAMED 1951-11-26 00:00:00 TS -9.81293 47.9781 main 289 280 O____P___OP___ jtwc_sh SH011952 -10.0000 47.9000 -1 -9.25939 48.1791 99 -10.0000 47.9000 TC 25 -9.99235 47.9331 2 13 234
1951321S06073 1952 87 SI MM NOT_NAMED 1951-11-26 03:00:00 TS -10.1931 47.4760 main 282 281 P____P___PP___ SH011952 -10.4224 47.4200 -1 -9.51311 47.6189 99 -10.4224 47.4200 TC 25 -10.4146 47.4451 2 12 232
1951321S06073 1952 87 SI MM NOT_NAMED 1951-11-26 06:00:00 TS -10.5500 47.0250 reunion main 297 289 O____O___OO___ jtwc_sh SH011952 -10.8000 47.0000 -1 -9.80000 47.1000 99 9.90000 -10.8000 47.0000 TC 25 -10.8000 47.0000 1 11 232
1951321S06073 1952 87 SI MM NOT_NAMED 1951-11-26 09:00:00 TS -10.8386 46.6331 main 306 299 P____P___PP___ SH011952 -11.0724 46.6348 -1 -10.1290 46.6567 99 -11.0724 46.6348 TC 25 -11.0805 46.6061 1 9 233
1951321S06073 1952 87 SI MM NOT_NAMED 1951-11-26 12:00:00 TS -11.1044 46.2771 main 314 314 O____P___OP___ jtwc_sh SH011952 -11.3000 46.3000 -1 -10.4955 46.2544 99 -11.3000 46.3000 TC 25 -11.3219 46.2540 1 9 232
1951321S06073 1952 87 SI MM NOT_NAMED 1951-11-26 15:00:00 TS -11.3783 45.9272 main 335 335 P____P___PP___ SH011952 -11.5350 45.9499 -1 -10.8908 45.8840 99 -11.5350 45.9499 TC 25 -11.5524 45.9250 1 9 230
1951321S06073 1952 87 SI MM NOT_NAMED 1951-11-26 18:00:00 TS -11.6766 45.5842 main 335 335 O____P___OO___ jtwc_sh SH011952 -11.8000 45.6000 -1 -11.3065 45.5367 99 -11.8000 45.6000 TC 25 -11.8000 45.6000 1 9 226
1951321S06073 1952 87 SI MM NOT_NAMED 1951-11-26 21:00:00 TS -12.0346 45.2344 main 349 343 P____P___PP___ SH011952 -12.1425 45.2500 -1 -11.7339 45.2035 99 -12.1425 45.2500 TC 25 -12.1197 45.2339 1 10 223
1951321S06073 1952 87 SI MM NOT_NAMED 1951-11-27 00:00:00 TS -12.4055 44.8865 main 356 356 O____P___OP___ jtwc_sh SH011952 -12.5000 44.9000 -1 -12.1644 44.8756 99 -12.5000 44.9000 TC 25 -12.4575 44.8703 1 10 224
1951321S06073 1952 87 SI MM NOT_NAMED 1951-11-27 03:00:00 TS -12.7527 44.5339 main 364 338 P____P___PP___ SH011952 -12.8150 44.5350 -1 -12.5894 44.5441 99 -12.8150 44.5350 TC 25 -12.7916 44.5214 1 10 225
1951321S06073 1952 87 SI MM NOT_NAMED 1951-11-27 06:00:00 TS -13.0750 44.2000 reunion main 338 318 O____O___OO___ jtwc_sh SH011952 -13.1000 44.2000 -1 -13.0000 44.2000 99 9.90000 -13.1000 44.2000 TC 25 -13.1000 44.2000 1 9 225
1951321S06073 1952 87 SI MM NOT_NAMED 1951-11-27 09:00:00 TS -13.3722 43.8932 main 318 307 P____P___PP___ SH011952 -13.3649 43.9349 -1 -13.3973 43.7821 99 -13.3649 43.9349 TC 25 -13.3616 43.9209 1 8 225
1951321S06073 1952 87 SI MM NOT_NAMED 1951-11-27 12:00:00 TS -13.6458 43.6056 main 313 277 O____P___OP___ jtwc_sh SH011952 -13.6000 43.7000 -1 -13.7886 43.3528 99 -13.6000 43.7000 TC 25 -13.5947 43.6695 1 8 227
1951321S06073 1952 87 SI MM NOT_NAMED 1951-11-27 15:00:00 TS -13.9009 43.3129 main 277 241 P____P___PP___ SH011952 -13.8150 43.4500 -1 -14.1683 42.9184 99 -13.8150 43.4500 TC 30 -13.8054 43.4335 1 8 229
1951321S06073 1952 87 SI MM NOT_NAMED 1951-11-27 18:00:00 TS -14.1327 43.0213 main 241 205 O____P___OO___ jtwc_sh SH011952 -14.0000 43.2000 -1 -14.5309 42.4854 99 -14.0000 43.2000 TC 35 -14.0000 43.2000 2 7 232
1951321S06073 1952 87 SI MM NOT_NAMED 1951-11-27 21:00:00 TS -14.3380 42.7275 main 205 183 P____P___PP___ SH011952 -14.1500 42.9499 -1 -14.8708 42.0603 99 -14.1500 42.9499 TC 35 -14.1812 42.9497 2 7 235
1951321S06073 1952 87 SI MM NOT_NAMED 1951-11-28 00:00:00 TS -14.5331 42.4374 main 172 150 O____P___OP___ jtwc_sh SH011952 -14.3000 42.7000 -1 -15.1826 41.6499 99 -14.3000 42.7000 TC 35 -14.3499 42.6996 2 7 234
1951321S06073 1952 87 SI MM NOT_NAMED 1951-11-28 03:00:00 TS -14.7411 42.1526 main 150 118 P____P___PP___ SH011952 -14.4925 42.4500 -1 -15.4608 41.2608 99 -14.4925 42.4500 TC 35 -14.5187 42.4497 2 7 233
1951321S06073 1952 87 SI MM NOT_NAMED 1951-11-28 06:00:00 TS -14.9500 41.8750 reunion main 118 86 O____O___OO___ jtwc_sh SH011952 -14.7000 42.2000 -1 -15.7000 40.9000 99 9.90000 -14.7000 42.2000 TC 35 -14.7000 42.2000 2 7 232
1951321S06073 1952 87 SI MM NOT_NAMED 1951-11-28 09:00:00 TS -15.1460 41.6096 main 86 72 P____P___PP___ SH011952 -14.8925 41.9499 -1 -15.8967 40.5724 99 -14.8925 41.9499 TC 35 -14.9023 41.9660 2 6 232
1951321S06073 1952 87 SI MM NOT_NAMED 1951-11-28 12:00:00 TS -15.3436 41.3513 main 72 54 O____P___OP___ jtwc_sh SH011952 -15.1000 41.7000 -1 -16.0546 40.2757 99 -15.1000 41.7000 TC 35 -15.1197 41.7295 2 6 230
1951321S06073 1952 87 SI MM NOT_NAMED 1951-11-28 15:00:00 TS -15.5541 41.1035 main 58 46 P____P___PP___ SH011952 -15.3424 41.4649 -1 -16.1794 40.0056 99 -15.3424 41.4649 TC 35 -15.3522 41.4784 2 7 229
1951321S06073 1952 87 SI MM NOT_NAMED 1951-11-28 18:00:00 TS -15.7692 40.8394 main 44 30 O____P___OO___ jtwc_sh SH011952 -15.6000 41.2000 -1 -16.2767 39.7578 99 -15.6000 41.2000 TC 35 -15.6000 41.2000 2 7 233
1951321S06073 1952 87 SI MM NOT_NAMED 1951-11-28 21:00:00 TS -15.9745 40.5250 main 30 24 P____P___PP___ SH011952 -15.8425 40.8649 -1 -16.3519 39.5277 99 -15.8425 40.8649 TC 35 -15.8610 40.8426 2 7 235
1951321S06073 1952 87 SI MM NOT_NAMED 1951-11-29 00:00:00 TS -16.1716 40.2524 main 30 11 O____P___OP___ jtwc_sh SH011952 -16.1000 40.5000 -1 -16.4105 39.3111 99 -16.1000 40.5000 TC 35 -16.1356 40.4631 2 7 231
1951321S06073 1952 87 SI MM NOT_NAMED 1951-11-29 03:00:00 TS -16.4133 39.9697 main 21 0 P____P___PP___ SH011952 -16.4001 40.1201 -1 -16.4581 39.1033 99 -16.4001 40.1201 TC 35 -16.4173 40.1020 2 7 224
1951321S06073 1952 87 SI MM NOT_NAMED 1951-11-29 06:00:00 TS -16.6846 39.7308 reunion main 15 15 O____O___OO___ jtwc_sh SH011952 -16.7000 39.8000 -1 -16.5000 38.9000 99 9.90000 -16.7000 39.8000 TC 35 -16.7000 39.8000 2 6 212
1951321S06073 1952 87 SI MM NOT_NAMED 1951-11-29 09:00:00 TS -16.9568 39.6101 main 38 38 P________PP___ SH011952 -16.9499 39.6123 -1 99 -16.9499 39.6123 TC 30 -16.9706 39.6057 2 6 203
1951321S06073 1952 87 SI MM NOT_NAMED 1951-11-29 12:00:00 TS -17.2140 39.4914 main 48 46 O________OP___ jtwc_sh SH011952 -17.2000 39.5000 -1 99 -17.2000 39.5000 TC 25 -17.2421 39.4743 2 6 201
1951321S06073 1952 87 SI MM NOT_NAMED 1951-11-29 15:00:00 TS -17.5008 39.3886 main 64 64 P________PP___ SH011952 -17.4925 39.3924 -1 99 -17.4925 39.3924 TC 25 -17.5176 39.3808 2 6 197
1951321S06073 1952 87 SI MM NOT_NAMED 1951-11-29 18:00:00 TS -17.8000 39.3000 main 92 92 O________OO___ jtwc_sh SH011952 -17.8000 39.3000 -1 99 -17.8000 39.3000 TC 25 -17.8000 39.3000 7 6 196
1951321S06073 1952 87 SI MM NOT_NAMED 1951-11-29 21:00:00 TS -18.0971 39.2038 main 123 123 P________PP___ SH011952 -18.1000 39.2000 -1 99 -18.1000 39.2000 TC 25 -18.0914 39.2113 7 6 197
1951321S06073 1952 87 SI MM NOT_NAMED 1951-11-30 00:00:00 TS -18.3967 39.1044 main 151 151 O________OP___ jtwc_sh SH011952 -18.4000 39.1000 -1 99 -18.4000 39.1000 TC 25 -18.3902 39.1131 7 6 198
1951321S06073 1952 87 SI MM NOT_NAMED 1951-11-30 03:00:00 TS -18.6980 39.0028 main 181 181 P________PP___ SH011952 -18.7000 39.0001 -1 99 -18.7000 39.0001 TC 25 -18.6939 39.0083 7 6 198
1951321S06073 1952 87 SI MM NOT_NAMED 1951-11-30 06:00:00 TS -19.0000 38.9000 main 208 O________OO___ jtwc_sh SH011952 -19.0000 38.9000 -1 -19.0000 38.9000 TC 25 -19.0000 38.9000 7 6 197

About IBTrACS Database

This database is a web-friendly format of International Best Track Archive for Climate Stewardship (IBTrACS), a global best track data archive curated by NOAA dating back to 1842.

Updated: 2021-10-21